TimeCDT,TemperatureF,Dew PointF,Humidity,Sea Level PressureIn,VisibilityMPH,Wind Direction,Wind SpeedMPH,Gust SpeedMPH,PrecipitationIn,Events,Conditions,WindDirDegrees,DateUTC
12:53 AM,41.0,37.0,86,30.05,10.0,Calm,Calm,-,N/A,,Clear,0,2013-03-21 05:53:00
1:53 AM,39.9,35.1,83,30.06,10.0,Calm,Calm,-,N/A,,Clear,0,2013-03-21 06:53:00
2:53 AM,39.0,37.0,93,30.04,10.0,North,4.6,-,N/A,,Clear,10,2013-03-21 07:53:00
3:53 AM,39.9,37.0,89,30.02,10.0,Calm,Calm,-,N/A,,Clear,0,2013-03-21 08:53:00
4:53 AM,39.0,35.1,86,30.03,10.0,Calm,Calm,-,N/A,,Clear,0,2013-03-21 09:53:00
5:53 AM,37.9,35.1,89,30.04,10.0,Calm,Calm,-,N/A,,Clear,0,2013-03-21 10:53:00
6:53 AM,39.9,37.0,89,30.05,10.0,Calm,Calm,-,N/A,,Clear,0,2013-03-21 11:53:00
7:53 AM,43.0,39.0,86,30.06,10.0,Calm,Calm,-,N/A,,Clear,0,2013-03-21 12:53:00
8:53 AM,51.1,36.0,56,30.07,10.0,Calm,Calm,-,N/A,,Clear,0,2013-03-21 13:53:00
9:53 AM,55.0,32.0,42,30.07,10.0,NE,8.1,-,N/A,,Clear,50,2013-03-21 14:53:00
10:53 AM,57.9,33.1,39,30.06,10.0,Variable,4.6,-,N/A,,Clear,0,2013-03-21 15:53:00
11:53 AM,61.0,32.0,34,30.05,10.0,Variable,4.6,-,N/A,,Clear,0,2013-03-21 16:53:00
12:53 PM,64.0,33.1,31,30.03,10.0,Calm,Calm,-,N/A,,Clear,0,2013-03-21 17:53:00
1:53 PM,66.0,30.9,27,29.98,10.0,Calm,Calm,-,N/A,,Clear,0,2013-03-21 18:53:00
2:53 PM,64.0,39.9,41,29.95,10.0,South,10.4,18.4,N/A,,Clear,180,2013-03-21 19:53:00
3:53 PM,64.0,37.9,38,29.93,10.0,South,12.7,-,N/A,,Clear,170,2013-03-21 20:53:00
4:53 PM,63.0,39.0,41,29.91,10.0,SSE,10.4,-,N/A,,Mostly Cloudy,150,2013-03-21 21:53:00
5:53 PM,61.0,39.0,44,29.91,10.0,South,10.4,-,N/A,,Mostly Cloudy,170,2013-03-21 22:53:00
6:53 PM,59.0,39.9,49,29.90,10.0,SSE,9.2,-,N/A,,Overcast,160,2013-03-21 23:53:00
7:53 PM,55.9,41.0,57,29.90,10.0,SSE,4.6,-,N/A,,Scattered Clouds,150,2013-03-22 00:53:00
8:53 PM,53.1,43.0,69,29.91,10.0,Calm,Calm,-,N/A,,Partly Cloudy,0,2013-03-22 01:53:00
9:53 PM,54.0,44.1,69,29.89,10.0,ESE,3.5,-,N/A,,Overcast,120,2013-03-22 02:53:00
10:53 PM,50.0,44.1,80,29.89,10.0,Calm,Calm,-,N/A,,Mostly Cloudy,0,2013-03-22 03:53:00
11:53 PM,48.9,44.1,83,29.89,10.0,Calm,Calm,-,N/A,,Partly Cloudy,0,2013-03-22 04:53:00